KSAC/SAC METAR and TAF weather

Enter ICAO airport designator
Station Type Date Time Source
KSAC METAR 2021/04/14 20:53 UTC NOAA

KSAC 142053Z VRB03KT 10SM CLR 21/01 A2992 RMK AO2 SLP131 T02060011 58009


Station Type Date Time Source
KSAC Decoded METAR 2021/04/14 20:53 UTC NOAA

SACRAMENTO EXECUTIVE AIRPORT , CA, United States (KSAC) 38-30N 121-30W 11M
Apr 14, 2021 - 04:53 PM EDT / 2021.04.14 2053 UTC
Wind: Variable at 3 MPH (3 KT):0
Visibility: 10 mile(s):0
Sky conditions: clear
Temperature: 69.1 F (20.6 C)
Dew Point: 34.0 F (1.1 C)
Relative Humidity: 27%
Pressure (altimeter): 29.92 in. Hg (1013 hPa)
Pressure tendency: 0.03 inches (0.9 hPa) lower than three hours ago
ob: KSAC 142053Z VRB03KT 10SM CLR 21/01 A2992 RMK AO2 SLP131 T02060011 58009
cycle: 21

Station Type Date Time Source
KSAC TAF 2021/04/14 18:40 UTC NOAA

TAF KSAC 141738Z 1418/1518 VRB05KT P6SM FEW250

Example: see airport list